Ft Lauderdale, FL

7:29 PM EDT on August 20, 2017 (GMT -0400)
Fort Lauderdale-Hollywood International | | Change Station

Elev 7 ft 26.07 °N, 80.15 °W | Updated 36 minutes ago

Mostly Cloudy
Mostly Cloudy
84 °F
Feels Like 94 °F
N
9
Wind Variable Wind from ENE

Today
High -- | Low -- °F
--% Chance of Precip.
Yesterday
High -- | Low -- °F
Precip. -- in
Pressure 30.00 in
Visibility 10.0 miles
Clouds Few 2800 ft
Scattered Clouds 14000 ft
Mostly Cloudy 22000 ft
Heat Index 94 °F
Dew Point 77 °F
Humidity 79%
Rainfall 0.14 in
Snow Depth Not available.
6:55 AM 7:51 PM
Waning Crescent, 1% visible
METAR KFLL 202253Z 06008KT 10SM FEW028 SCT140 BKN220 29/25 A3000 RMK AO2 SLP157 T02890250 $
Pressure 30.00 in
Visibility 10.0 miles
Clouds Few 2800 ft
Scattered Clouds 14000 ft
Mostly Cloudy 22000 ft
Heat Index 94 °F
Dew Point 77 °F
Humidity 79%
Rainfall 0.14 in
Snow Depth Not available.
6:55 AM 7:51 PM
Waning Crescent, 1% visible
METAR KFLL 202253Z 06008KT 10SM FEW028 SCT140 BKN220 29/25 A3000 RMK AO2 SLP157 T02890250 $

Get Severe Weather Alerts

Thanks for signing up!

Be on the lookout for a verification email in your inbox.

You'll start receiving the daily forecast at 6 AM.

×

10-Day Weather Forecast

Almanac

Astronomy

Aug. 20, 2017 Rise Set
Actual Time
Civil Twilight
Nautical Twilight
Astronomical Twilight
Moon
Length of Visible Light
Length of Day
Tomorrow will be .
, % of the Moon is Illuminated

Today's Extremes

State Highs State Lows

Community

WunderPhotos

Category 6

Welcome to Category 6. This is the collective home for Weather Underground's featured writeups by Dr. Jeff Masters (right), Bob Henson (left), Chris Burt, and other regular contributors.

Nearby

Air Quality

  Air Quality AQ Index Pollutant
Not available.

Snow Depth

Station Depth Elevation

Earthquake Activity

City Distance Mag. Time & Date
Minimum magnitude displayed is 2.5.

Coastal Water Temperatures

Place Temperature

Stations

Nearby Weather Stations

Station Location Temp. Windchill Dew Point Humidity Wind Precip. Elev Updated Type
                   

Watches & Warnings

There are currently no watches in effect.